Página principal
METAR-TAF:

METAR-TAF

Aeroportos :

Aeroporto de Amesterdão Schiphol

Amsterdão, Países Baixos

latitude: 52-18N, longitude: 004-46E, altura: -4 m

Observação actual do tempo

O boletim foi feito há 17 minutos, às 14:55 UTC
Vento 10 kt de es-sudeste
Temperatura 2°C
Humidade 69%
Pressão 1014 hPa
Visibilidade 10 km ou mais
sem nuvens abaixo de 1500 metros e sem cumulonimbus

METAR: EHAM 191455Z 12010KT CAVOK 02/M03 Q1014 NOSIG

Hora: 16:12 (15:12 UTC)

Previsão

O boletim foi feito há 4 horas e 0 minutos, às 11:12 UTC
Previsão válida de 19 às 12 UTC a 20 às 18 UTC
Vento 10 kt de es-sudeste
Visibilidade 10 km ou mais
sem nuvens abaixo de 1500 metros e sem cumulonimbus
Tornando-se
de 20 às 03 UTC a 20 às 06 UTC
Vento 5 kt de este

TAF: EHAM 191112Z 1912/2018 12010KT CAVOK BECMG 2003/2006 08005KT

Observações e previsões do tempo de mais de 4000 aeroportos (mensagens METAR e TAF).

As estações disponíveis são os pontos amarelos e vermelhos sobre o mapa.

Mova o rato sobre o mapa para ver o nome da estação.

Depois clique no ponto para visualizar as observações e previsões meteorológicas.

Para alterar o mapa : clique nos botões verdes com uma cruz preta para aumentar o zoom; no botão verde com uma pitada de zoom; ou nas setas verdes para mapas adjacentes.


METAR-TAF: